Time;durP1;ratioP1;P1;durP2;ratioP2;P2;SDS_P1;SDS_P2;PMS_P1;PMS_P2;Temp;Humidity;BMP_temperature;BMP_pressure;BME280_temperature;BME280_humidity;BME280_pressure;Samples;Min_cycle;Max_cycle;Signal;HPM_P1;HPM_P2
2022/11/19 00:01:36;;;;;;;6.30;4.80;;;8.50;99.90;;;;;;5056614;28;20274;-89
2022/11/19 00:04:06;;;;;;;5.03;4.57;;;8.50;99.90;;;;;;5039867;28;20604;-89
2022/11/19 00:06:31;;;;;;;5.68;4.47;;;8.50;99.90;;;;;;5056609;28;20172;-89
2022/11/19 00:08:57;;;;;;;6.40;3.97;;;8.60;99.90;;;;;;5074311;28;20237;-88
2022/11/19 00:14:11;;;;;;;8.00;4.20;;;8.60;99.90;;;;;;5074511;28;20698;-89
2022/11/19 00:16:37;;;;;;;7.90;4.55;;;8.60;99.90;;;;;;5074193;28;20609;-89
2022/11/19 00:19:03;;;;;;;7.90;5.00;;;8.60;99.90;;;;;;5056441;28;20187;-88
2022/11/19 00:21:28;;;;;;;5.38;4.88;;;8.50;99.90;;;;;;5039786;28;20338;-89
2022/11/19 00:23:55;;;;;;;4.40;4.00;;;8.50;99.90;;;;;;5039681;28;20220;-88
2022/11/19 00:26:21;;;;;;;6.00;3.95;;;8.60;99.90;;;;;;5074120;28;20199;-88
2022/11/19 00:28:47;;;;;;;3.90;3.60;;;8.60;99.90;;;;;;5056061;28;20191;-89
2022/11/19 00:31:14;;;;;;;5.90;5.30;;;8.60;99.90;;;;;;5074084;28;20177;-89
2022/11/19 00:33:42;;;;;;;5.93;5.40;;;8.70;99.90;;;;;;5073758;28;20283;-89
2022/11/19 00:36:11;;;;;;;5.55;4.45;;;8.70;99.90;;;;;;5056022;28;20188;-89
2022/11/19 00:38:37;;;;;;;4.82;4.35;;;8.60;99.90;;;;;;5074140;28;20228;-89
2022/11/19 00:41:03;;;;;;;5.38;4.40;;;8.60;99.90;;;;;;5073803;28;20177;-89
2022/11/19 00:43:47;;;;;;;5.57;3.80;;;8.70;99.90;;;;;;5056323;28;20206;-89
2022/11/19 00:46:18;;;;;;;4.43;3.28;;;8.70;99.90;;;;;;5074112;28;20774;-89
2022/11/19 00:48:45;;;;;;;8.02;6.15;;;8.70;99.90;;;;;;5073658;28;20187;-87
2022/11/19 00:51:11;;;;;;;12.77;11.45;;;8.70;99.90;;;;;;5055815;28;20234;-89
2022/11/19 00:53:37;;;;;;;8.10;5.73;;;8.70;99.90;;;;;;5074170;28;20208;-89
2022/11/19 00:56:06;;;;;;;7.07;6.33;;;8.70;99.90;;;;;;5056278;28;20234;-89
2022/11/19 00:58:31;;;;;;;8.38;6.00;;;8.70;99.90;;;;;;5055591;28;20433;-89
2022/11/19 01:00:57;;;;;;;6.97;4.37;;;8.70;99.90;;;;;;5055206;28;20232;-88
2022/11/19 01:03:23;;;;;;;12.80;9.13;;;8.60;99.90;;;;;;5056499;28;20271;-87
2022/11/19 01:05:49;;;;;;;6.45;5.00;;;8.60;99.90;;;;;;5055329;28;20188;-89
2022/11/19 01:08:16;;;;;;;6.75;4.57;;;8.60;99.90;;;;;;5057272;28;20227;-89
2022/11/19 01:10:42;;;;;;;11.80;4.85;;;8.60;99.90;;;;;;5078010;28;20545;-89
2022/11/19 01:16:12;;;;;;;8.93;4.75;;;8.60;99.90;;;;;;5063653;28;20197;-89
2022/11/19 01:18:39;;;;;;;6.82;4.30;;;8.60;99.90;;;;;;5077750;28;20222;-89
2022/11/19 01:21:06;;;;;;;5.03;4.50;;;8.50;99.90;;;;;;5077337;28;20200;-89
2022/11/19 01:23:32;;;;;;;5.38;4.03;;;8.60;99.90;;;;;;5077752;28;20234;-89
2022/11/19 01:25:58;;;;;;;5.07;4.57;;;8.70;99.90;;;;;;5077300;28;20169;-89
2022/11/19 01:28:24;;;;;;;4.60;4.20;;;8.80;99.90;;;;;;5059373;28;20234;-88
2022/11/19 01:30:50;;;;;;;4.37;3.97;;;8.70;99.90;;;;;;5077539;28;20407;-89
2022/11/19 01:33:15;;;;;;;4.37;3.83;;;8.70;99.90;;;;;;5059619;28;20228;-89
2022/11/19 01:35:41;;;;;;;5.37;4.47;;;8.70;99.90;;;;;;5077174;28;20184;-89
2022/11/19 01:38:07;;;;;;;16.50;4.57;;;8.70;99.90;;;;;;5042369;28;20246;-89
2022/11/19 01:40:39;;;;;;;7.13;4.43;;;8.70;99.90;;;;;;5077482;28;20273;-89
2022/11/19 01:43:09;;;;;;;5.93;3.90;;;8.70;99.90;;;;;;5059384;28;20177;-89
2022/11/19 01:45:41;;;;;;;4.35;3.70;;;8.70;99.90;;;;;;5059284;28;20188;-89
2022/11/19 01:48:11;;;;;;;4.18;3.78;;;8.60;99.90;;;;;;5058891;28;21021;-88
2022/11/19 01:50:43;;;;;;;6.30;4.22;;;8.60;99.90;;;;;;5076696;28;20176;-88
2022/11/19 01:53:11;;;;;;;5.47;4.18;;;8.70;99.90;;;;;;5076232;28;20200;-88
2022/11/19 01:55:38;;;;;;;6.53;4.90;;;8.70;99.90;;;;;;5059881;28;20205;-88
2022/11/19 01:58:06;;;;;;;9.60;4.38;;;8.70;99.90;;;;;;5059240;28;20181;-87
2022/11/19 02:00:31;;;;;;;6.90;3.85;;;8.70;99.90;;;;;;5076950;28;20228;-89
2022/11/19 02:02:57;;;;;;;9.23;4.40;;;8.70;99.90;;;;;;5059321;28;20253;-88
2022/11/19 02:05:25;;;;;;;4.73;4.30;;;8.80;99.90;;;;;;5059168;28;20858;-89
2022/11/19 02:07:56;;;;;;;6.95;4.88;;;8.70;99.90;;;;;;5059841;28;20234;-88
2022/11/19 02:11:00;;;;;;;6.30;4.40;;;8.80;99.90;;;;;;5059271;28;20185;-89
2022/11/19 02:14:00;;;;;;;4.43;3.85;;;8.80;99.90;;;;;;5077197;28;20198;-89
2022/11/19 02:16:30;;;;;;;7.35;5.00;;;8.80;99.90;;;;;;5077191;28;20651;-89
2022/11/19 02:19:11;;;;;;;8.82;5.22;;;8.70;99.90;;;;;;5058986;28;20616;-89
2022/11/19 02:21:49;;;;;;;9.23;4.65;;;8.70;99.90;;;;;;5080634;28;20180;-87
2022/11/19 02:24:42;;;;;;;9.18;4.65;;;8.70;99.90;;;;;;5079111;28;20160;-89
2022/11/19 02:27:46;;;;;;;5.32;4.82;;;8.70;99.90;;;;;;5059918;28;20184;-89
2022/11/19 02:30:16;;;;;;;11.32;4.63;;;8.70;99.90;;;;;;4999436;28;20195;-89
2022/11/19 02:33:05;;;;;;;7.50;4.88;;;8.80;99.90;;;;;;5062233;28;20266;-89
2022/11/19 02:36:00;;;;;;;6.00;4.18;;;8.80;99.90;;;;;;5056287;28;20937;-87
2022/11/19 02:38:49;;;;;;;4.47;3.72;;;8.90;99.90;;;;;;5071422;28;20181;-87
2022/11/19 02:41:50;;;;;;;6.22;4.60;;;8.90;99.90;;;;;;5053210;28;20188;-86
2022/11/19 02:47:09;;;;;;;10.85;4.18;;;8.90;99.90;;;;;;5076117;28;20203;-87
2022/11/19 02:49:39;;;;;;;9.63;5.85;;;8.90;99.90;;;;;;5076961;28;20177;-87
2022/11/19 02:52:05;;;;;;;6.78;5.78;;;8.90;99.90;;;;;;5076764;28;20197;-86
2022/11/19 02:54:30;;;;;;;7.83;5.43;;;8.80;99.90;;;;;;5059344;28;20616;-87
2022/11/19 02:56:59;;;;;;;9.03;5.33;;;8.80;99.90;;;;;;5059119;28;20427;-86
2022/11/19 03:05:22;;;;;;;14.15;9.82;;;8.70;99.90;;;;;;5075732;28;20686;-86
2022/11/19 03:07:49;;;;;;;16.95;11.23;;;8.70;99.90;;;;;;5041938;28;20267;-86
2022/11/19 03:10:17;;;;;;;14.25;11.90;;;8.70;99.90;;;;;;5058171;28;20214;-86
2022/11/19 03:12:50;;;;;;;17.15;13.32;;;8.70;99.90;;;;;;5075877;28;20213;-86
2022/11/19 03:18:34;;;;;;;9.63;8.38;;;8.50;99.90;;;;;;5075630;28;20639;-86
2022/11/19 03:21:22;;;;;;;7.30;6.45;;;8.50;99.90;;;;;;5075643;28;20578;-87
2022/11/19 03:23:53;;;;;;;5.93;4.45;;;8.40;99.90;;;;;;5075852;28;20522;-88
2022/11/19 03:26:48;;;;;;;5.25;4.50;;;8.30;99.90;;;;;;5075886;28;20169;-88
2022/11/19 03:29:14;;;;;;;2.65;2.42;;;8.20;99.90;;;;;;5075896;28;20177;-87
2022/11/19 03:31:46;;;;;;;3.50;2.05;;;8.10;99.90;;;;;;5075201;28;20524;-86
2022/11/19 03:34:17;;;;;;;1.83;1.73;;;7.90;99.90;;;;;;5075386;28;20169;-87
2022/11/19 03:36:45;;;;;;;5.95;1.90;;;7.70;99.90;;;;;;5058051;28;20180;-88
2022/11/19 03:39:16;;;;;;;2.00;1.40;;;7.60;99.90;;;;;;5075266;28;20176;-87
2022/11/19 03:41:46;;;;;;;2.40;1.80;;;7.50;99.90;;;;;;5058118;28;20177;-88
2022/11/19 03:44:23;;;;;;;1.90;1.77;;;7.40;99.90;;;;;;5075503;28;20197;-88
2022/11/19 03:46:56;;;;;;;1.73;1.63;;;7.40;99.90;;;;;;5058256;28;20237;-88
2022/11/19 03:49:27;;;;;;;2.38;1.85;;;7.30;99.90;;;;;;5058013;28;20172;-87
2022/11/19 03:52:01;;;;;;;1.80;1.65;;;7.20;99.90;;;;;;5057982;28;20169;-87
2022/11/19 03:54:27;;;;;;;2.95;2.03;;;7.10;99.90;;;;;;5075531;28;20172;-86
2022/11/19 03:56:54;;;;;;;2.55;1.95;;;7.00;99.90;;;;;;5073052;28;20194;-83
2022/11/19 03:59:22;;;;;;;2.78;1.90;;;6.90;99.90;;;;;;5051652;28;20238;-86
2022/11/19 04:01:51;;;;;;;2.15;1.70;;;6.90;99.90;;;;;;5050905;28;20189;-86
2022/11/19 04:04:35;;;;;;;3.33;2.00;;;6.90;99.90;;;;;;5053465;28;20188;-87
2022/11/19 04:07:05;;;;;;;2.33;1.98;;;6.80;99.90;;;;;;5043274;28;20678;-88
2022/11/19 04:09:31;;;;;;;1.85;1.75;;;6.80;99.90;;;;;;5058225;28;20187;-87
2022/11/19 04:11:56;;;;;;;2.10;1.90;;;6.70;99.90;;;;;;5061021;28;20215;-83
2022/11/19 04:14:22;;;;;;;1.77;1.60;;;6.70;99.90;;;;;;5061840;28;20220;-85
2022/11/19 04:16:47;;;;;;;1.70;1.60;;;6.70;99.90;;;;;;5063313;28;20184;-87
2022/11/19 04:19:13;;;;;;;2.10;1.80;;;6.60;99.90;;;;;;5075749;28;20177;-87
2022/11/19 04:21:38;;;;;;;2.20;1.47;;;6.60;99.90;;;;;;5057092;28;20547;-86
2022/11/19 04:24:04;;;;;;;2.30;2.00;;;6.60;99.90;;;;;;5073648;28;20212;-86
2022/11/19 04:26:30;;;;;;;1.67;1.57;;;6.60;99.90;;;;;;5056807;28;20181;-86
2022/11/19 04:28:55;;;;;;;2.00;1.70;;;6.60;99.90;;;;;;5056716;28;20993;-86
2022/11/19 04:31:21;;;;;;;2.10;1.80;;;6.60;99.90;;;;;;5074402;28;20523;-86
2022/11/19 04:33:47;;;;;;;2.50;1.93;;;6.50;99.90;;;;;;5074059;28;20201;-86
2022/11/19 04:36:12;;;;;;;3.07;2.70;;;6.50;99.90;;;;;;5074281;28;20553;-86
2022/11/19 04:38:38;;;;;;;3.70;3.03;;;6.50;99.90;;;;;;5039985;28;20192;-86
2022/11/19 04:41:03;;;;;;;6.73;2.50;;;6.50;99.90;;;;;;5055579;28;20192;-86
2022/11/19 04:43:29;;;;;;;3.07;2.77;;;6.50;99.90;;;;;;5055278;28;20233;-86
2022/11/19 04:45:54;;;;;;;3.37;3.03;;;6.50;99.90;;;;;;5056147;28;20181;-85
2022/11/19 04:48:20;;;;;;;4.10;3.40;;;6.50;99.90;;;;;;5022997;28;20593;-85
2022/11/19 04:50:45;;;;;;;3.63;3.30;;;6.50;99.90;;;;;;5073652;28;20177;-85
2022/11/19 04:53:11;;;;;;;4.90;3.13;;;6.50;99.90;;;;;;5055408;28;20571;-85
2022/11/19 04:55:36;;;;;;;4.10;3.40;;;6.50;99.90;;;;;;5055757;28;20188;-85
2022/11/19 04:58:02;;;;;;;4.30;3.40;;;6.50;99.90;;;;;;5022494;28;20177;-85
2022/11/19 05:00:28;;;;;;;3.87;3.23;;;6.50;99.90;;;;;;5055241;28;20797;-85
2022/11/19 05:02:53;;;;;;;2.93;2.67;;;6.60;99.90;;;;;;5039104;28;20235;-86
2022/11/19 05:05:19;;;;;;;2.53;2.33;;;6.60;99.90;;;;;;5055691;28;20263;-86
2022/11/19 05:07:45;;;;;;;1.33;1.23;;;6.60;99.90;;;;;;5055235;28;20227;-86
2022/11/19 05:10:11;;;;;;;1.40;1.30;;;6.60;99.90;;;;;;5055363;28;20188;-86
2022/11/19 05:12:36;;;;;;;1.77;1.20;;;6.50;99.90;;;;;;5055593;28;20223;-86
2022/11/19 05:15:02;;;;;;;1.20;1.10;;;6.50;99.90;;;;;;5055454;28;20188;-85
2022/11/19 05:17:28;;;;;;;1.40;1.30;;;6.40;99.90;;;;;;5073572;28;20194;-86
2022/11/19 05:19:53;;;;;;;1.30;1.20;;;6.30;99.90;;;;;;5022761;28;20419;-86
2022/11/19 05:22:19;;;;;;;1.93;1.20;;;6.20;99.90;;;;;;5055519;28;20188;-86
2022/11/19 05:24:44;;;;;;;3.53;1.50;;;6.20;99.90;;;;;;5039589;28;20180;-86
2022/11/19 05:27:10;;;;;;;1.50;1.40;;;6.10;99.90;;;;;;5039026;28;20267;-88
2022/11/19 05:29:35;;;;;;;1.53;1.43;;;6.10;99.90;;;;;;5055677;28;20262;-87
2022/11/19 05:32:01;;;;;;;2.53;1.43;;;6.10;99.90;;;;;;5073193;28;20202;-86
2022/11/19 05:34:26;;;;;;;1.80;1.50;;;6.10;99.90;;;;;;5073751;28;20238;-88
2022/11/19 05:36:52;;;;;;;1.40;1.30;;;6.00;99.90;;;;;;5039364;28;20181;-88
2022/11/19 05:39:17;;;;;;;2.00;1.80;;;6.00;99.90;;;;;;5056067;28;20188;-88
2022/11/19 05:41:43;;;;;;;2.00;1.50;;;5.90;99.90;;;;;;5056219;28;20180;-88
2022/11/19 05:44:09;;;;;;;2.13;1.93;;;5.90;99.90;;;;;;5039998;28;20184;-87
2022/11/19 05:46:34;;;;;;;2.53;1.77;;;5.90;99.90;;;;;;5074722;28;20570;-87
2022/11/19 05:49:00;;;;;;;2.10;1.90;;;5.90;99.90;;;;;;5061042;28;20181;-88
2022/11/19 05:51:25;;;;;;;2.90;2.00;;;5.90;99.90;;;;;;5043056;28;20275;-88
2022/11/19 05:53:51;;;;;;;2.63;1.70;;;5.80;99.90;;;;;;5040304;28;20208;-88
2022/11/19 05:56:17;;;;;;;3.77;1.80;;;5.90;99.90;;;;;;5059050;28;20194;-87
2022/11/19 05:58:42;;;;;;;2.20;2.00;;;5.80;99.90;;;;;;5042111;28;20437;-87
2022/11/19 06:01:08;;;;;;;2.23;2.03;;;5.70;99.90;;;;;;5076613;28;20281;-87
2022/11/19 06:03:33;;;;;;;3.50;2.77;;;5.80;99.90;;;;;;5025693;28;20189;-86
2022/11/19 06:05:59;;;;;;;2.47;2.17;;;5.70;99.90;;;;;;5041806;28;20200;-87
2022/11/19 06:08:25;;;;;;;4.27;2.20;;;5.60;99.90;;;;;;5058335;28;20622;-87
2022/11/19 06:10:50;;;;;;;5.80;2.20;;;5.60;99.90;;;;;;5041930;28;20271;-86
2022/11/19 06:13:16;;;;;;;2.93;2.67;;;5.50;99.90;;;;;;5041544;28;20644;-86
2022/11/19 06:15:41;;;;;;;2.93;2.67;;;5.50;99.90;;;;;;5058284;28;20184;-86
2022/11/19 06:18:07;;;;;;;3.00;2.70;;;5.50;99.90;;;;;;5058147;28;20178;-86
2022/11/19 06:20:32;;;;;;;3.20;2.90;;;5.40;99.90;;;;;;5058369;28;20276;-86
2022/11/19 06:22:58;;;;;;;2.57;2.33;;;5.40;99.90;;;;;;5041519;28;20192;-86
2022/11/19 06:25:23;;;;;;;4.07;2.90;;;5.40;99.90;;;;;;5076043;28;20179;-86
2022/11/19 06:27:49;;;;;;;3.20;2.73;;;5.40;99.90;;;;;;5041907;28;20664;-86
2022/11/19 06:30:15;;;;;;;3.83;3.03;;;5.40;99.90;;;;;;5057576;28;20178;-86
2022/11/19 06:32:42;;;;;;;3.72;3.38;;;5.40;99.90;;;;;;5058112;28;20220;-86
2022/11/19 06:35:08;;;;;;;5.38;3.38;;;5.30;99.90;;;;;;5041077;28;20196;-86
2022/11/19 06:37:33;;;;;;;4.15;3.75;;;5.30;99.90;;;;;;5058168;28;20173;-87
2022/11/19 06:39:59;;;;;;;6.57;5.53;;;5.20;99.90;;;;;;5058242;28;20268;-86
2022/11/19 06:42:37;;;;;;;8.10;5.80;;;5.10;99.90;;;;;;5058039;28;20184;-86
2022/11/19 06:45:04;;;;;;;7.10;6.22;;;5.10;99.90;;;;;;5028613;28;20213;-87
2022/11/19 06:47:30;;;;;;;7.28;5.55;;;5.00;99.90;;;;;;5075447;28;20183;-86
2022/11/19 06:49:56;;;;;;;8.90;7.40;;;4.90;99.90;;;;;;5075827;28;20597;-87
2022/11/19 06:52:22;;;;;;;8.93;7.20;;;4.90;99.90;;;;;;5057708;28;20213;-86
2022/11/19 06:54:47;;;;;;;12.17;7.67;;;4.80;99.90;;;;;;5075804;28;20204;-87
2022/11/19 06:57:13;;;;;;;10.97;7.70;;;4.70;99.90;;;;;;5075615;28;20604;-87
2022/11/19 06:59:39;;;;;;;11.23;7.00;;;4.70;99.90;;;;;;5040450;28;20293;-87
2022/11/19 07:02:06;;;;;;;11.00;8.33;;;4.70;99.90;;;;;;5058671;28;20223;-86
2022/11/19 07:04:31;;;;;;;9.57;7.40;;;4.70;99.90;;;;;;5037559;28;20535;-87
2022/11/19 07:06:57;;;;;;;7.90;6.07;;;4.70;99.90;;;;;;5036741;28;20192;-87
2022/11/19 07:09:23;;;;;;;8.20;6.37;;;4.70;99.90;;;;;;5044667;28;20188;-86
2022/11/19 07:11:48;;;;;;;8.70;6.70;;;4.60;99.90;;;;;;5040743;28;20657;-86
2022/11/19 07:14:14;;;;;;;10.80;7.60;;;4.70;99.90;;;;;;5075515;28;20617;-86
2022/11/19 07:16:39;;;;;;;8.60;7.70;;;4.60;99.90;;;;;;5057390;28;20176;-87
2022/11/19 07:19:06;;;;;;;7.57;6.67;;;4.60;99.90;;;;;;5079649;28;20187;-87
2022/11/19 07:21:32;;;;;;;8.20;6.55;;;4.60;99.90;;;;;;5085886;28;20216;-87
2022/11/19 07:23:59;;;;;;;11.10;8.20;;;4.60;99.90;;;;;;5066978;28;20185;-87
2022/11/19 07:26:25;;;;;;;12.52;8.18;;;4.60;99.90;;;;;;5058978;28;20176;-86
2022/11/19 07:28:51;;;;;;;12.85;9.90;;;4.50;99.90;;;;;;5075204;28;20192;-86
2022/11/19 07:31:17;;;;;;;11.30;8.90;;;4.40;99.90;;;;;;5075229;28;20172;-86
2022/11/19 07:33:43;;;;;;;10.40;8.23;;;4.40;99.90;;;;;;5074830;28;20458;-85
2022/11/19 07:36:10;;;;;;;11.07;9.50;;;4.40;99.90;;;;;;5040660;28;20431;-86
2022/11/19 07:38:37;;;;;;;13.43;9.95;;;4.40;99.90;;;;;;5076287;28;20204;-86
2022/11/19 07:42:47;;;;;;;13.18;9.50;;;4.40;99.90;;;;;;5074477;28;20184;-87
2022/11/19 07:43:49;;;;;;;11.98;9.75;;;4.40;99.90;;;;;;5075282;28;20545;-86
2022/11/19 07:46:14;;;;;;;13.17;9.80;;;4.40;99.90;;;;;;5075271;28;20181;-87
2022/11/19 07:48:40;;;;;;;13.60;10.00;;;4.40;99.90;;;;;;5075132;28;20169;-87
2022/11/19 07:51:05;;;;;;;13.97;11.20;;;4.40;99.90;;;;;;5048077;28;20185;-88
2022/11/19 07:53:31;;;;;;;15.93;10.90;;;4.40;99.90;;;;;;5048808;28;20201;-87
2022/11/19 07:55:59;;;;;;;14.67;11.07;;;4.40;99.90;;;;;;5048507;28;20259;-88
2022/11/19 07:58:25;;;;;;;12.80;10.32;;;4.40;99.90;;;;;;5045246;28;20179;-88
2022/11/19 08:00:51;;;;;;;15.10;11.20;;;4.40;99.90;;;;;;5030695;28;20221;-87
2022/11/19 08:03:16;;;;;;;12.37;9.87;;;4.30;99.90;;;;;;5051565;28;20633;-87
2022/11/19 08:05:42;;;;;;;13.77;10.90;;;4.30;99.90;;;;;;5057358;28;20234;-88
2022/11/19 08:08:08;;;;;;;11.33;9.50;;;4.20;99.90;;;;;;5040843;28;20655;-88
2022/11/19 08:10:34;;;;;;;12.53;9.87;;;4.20;99.90;;;;;;5060986;28;20258;-88
2022/11/19 08:13:03;;;;;;;12.20;9.68;;;4.20;99.90;;;;;;5055021;28;20198;-88
2022/11/19 08:15:33;;;;;;;15.27;11.18;;;4.20;99.90;;;;;;5036756;28;20679;-87
2022/11/19 08:18:17;;;;;;;13.70;9.90;;;4.20;99.90;;;;;;5054745;28;20174;-88
2022/11/19 08:20:43;;;;;;;12.57;10.20;;;4.20;99.90;;;;;;5037175;28;20188;-88
2022/11/19 08:23:11;;;;;;;13.75;10.52;;;4.20;99.90;;;;;;5055050;28;20188;-88
2022/11/19 08:25:37;;;;;;;13.90;11.00;;;4.20;99.90;;;;;;5036821;28;20182;-88
2022/11/19 08:28:04;;;;;;;18.38;12.52;;;4.20;99.90;;;;;;5036754;28;20252;-88
2022/11/19 08:30:30;;;;;;;15.35;12.25;;;4.20;99.90;;;;;;5036654;28;20192;-88
2022/11/19 08:32:56;;;;;;;17.08;13.02;;;4.20;99.90;;;;;;5036422;28;20205;-88
2022/11/19 08:35:22;;;;;;;17.83;11.90;;;4.20;99.90;;;;;;5003892;28;20188;-87
2022/11/19 08:37:48;;;;;;;17.35;13.23;;;4.20;99.90;;;;;;5054468;28;20260;-88
2022/11/19 08:40:14;;;;;;;20.43;13.40;;;4.20;99.90;;;;;;5036375;28;20209;-86
2022/11/19 08:42:58;;;;;;;19.27;13.05;;;4.20;99.90;;;;;;5054146;28;20529;-88
2022/11/19 08:45:51;;;;;;;16.92;12.95;;;4.30;99.90;;;;;;5024854;28;20166;-88
2022/11/19 08:48:17;;;;;;;19.17;13.27;;;4.30;99.90;;;;;;5050226;28;20270;-88
2022/11/19 08:50:42;;;;;;;18.07;13.50;;;4.30;99.90;;;;;;5036056;28;20272;-88
2022/11/19 08:53:08;;;;;;;18.37;12.90;;;4.20;99.90;;;;;;5036488;28;20254;-85
2022/11/19 08:55:33;;;;;;;17.83;13.90;;;4.30;99.90;;;;;;5053973;28;20181;-85
2022/11/19 08:58:04;;;;;;;19.23;14.13;;;4.30;99.90;;;;;;5019670;28;20213;-83
2022/11/19 09:00:31;;;;;;;19.25;14.10;;;4.40;99.90;;;;;;5053451;28;20225;-83
2022/11/19 09:02:57;;;;;;;19.52;14.10;;;4.40;99.90;;;;;;5053854;28;20251;-83
2022/11/19 09:05:23;;;;;;;17.20;14.53;;;4.40;99.90;;;;;;5026496;28;20177;-83
2022/11/19 09:07:49;;;;;;;20.20;13.50;;;4.40;99.90;;;;;;5073505;28;20208;-83
2022/11/19 09:10:15;;;;;;;18.63;13.43;;;4.50;99.90;;;;;;5039317;28;20461;-86
2022/11/19 09:12:40;;;;;;;21.70;14.73;;;4.40;99.90;;;;;;5038888;28;20213;-84
2022/11/19 09:15:07;;;;;;;23.03;15.23;;;4.40;99.90;;;;;;5055589;28;20187;-83
2022/11/19 09:17:33;;;;;;;18.92;14.00;;;4.40;99.90;;;;;;5055722;28;20502;-83
2022/11/19 09:19:58;;;;;;;20.20;14.10;;;4.40;99.90;;;;;;5053239;28;20192;-83
2022/11/19 09:22:24;;;;;;;18.80;14.17;;;4.50;99.90;;;;;;5022386;28;20670;-83
2022/11/19 09:24:50;;;;;;;21.47;14.20;;;4.50;99.90;;;;;;5036028;28;20617;-83
2022/11/19 09:27:15;;;;;;;18.80;13.00;;;4.50;99.90;;;;;;5035600;28;20190;-86
2022/11/19 09:29:41;;;;;;;20.00;14.03;;;4.50;99.90;;;;;;5037963;28;20188;-83
2022/11/19 09:32:06;;;;;;;18.53;13.57;;;4.50;99.90;;;;;;5040954;28;20217;-83
2022/11/19 09:34:33;;;;;;;18.10;14.20;;;4.50;99.90;;;;;;5057244;28;20181;-83
2022/11/19 09:36:59;;;;;;;18.70;13.75;;;4.50;99.90;;;;;;5023683;28;20169;-83
2022/11/19 09:39:25;;;;;;;18.17;12.80;;;4.60;99.90;;;;;;5039295;28;20194;-82
2022/11/19 09:42:06;;;;;;;19.93;13.47;;;4.60;99.90;;;;;;5045328;28;20430;-83
2022/11/19 09:44:53;;;;;;;19.65;13.43;;;4.60;99.90;;;;;;5044470;28;20180;-83
2022/11/19 09:47:24;;;;;;;20.10;13.73;;;4.70;99.90;;;;;;5073601;28;20210;-83
2022/11/19 09:50:15;;;;;;;22.38;14.00;;;4.70;99.90;;;;;;5053774;28;20181;-83
2022/11/19 09:52:59;;;;;;;18.75;13.77;;;4.70;99.90;;;;;;5043932;28;20232;-83
2022/11/19 09:55:37;;;;;;;17.20;13.50;;;4.70;99.90;;;;;;5059791;28;20203;-83
2022/11/19 09:58:10;;;;;;;16.88;12.90;;;4.70;99.90;;;;;;5057201;28;20617;-83
2022/11/19 10:00:36;;;;;;;18.48;12.45;;;4.70;99.90;;;;;;5056303;28;20564;-83
2022/11/19 10:03:12;;;;;;;19.17;12.40;;;4.70;99.90;;;;;;5056977;28;20181;-83
2022/11/19 10:05:59;;;;;;;17.13;12.95;;;4.60;99.90;;;;;;5056775;28;20169;-83
2022/11/19 10:08:27;;;;;;;16.38;12.27;;;4.60;99.90;;;;;;5056212;28;20184;-83
2022/11/19 10:11:19;;;;;;;22.15;13.20;;;4.70;99.90;;;;;;5057516;28;20173;-82
2022/11/19 10:14:01;;;;;;;14.18;10.55;;;4.60;99.90;;;;;;5038709;28;20290;-83
2022/11/19 10:16:33;;;;;;;16.33;12.55;;;4.60;99.90;;;;;;5038540;28;20588;-83
2022/11/19 10:19:13;;;;;;;16.50;12.23;;;4.70;99.90;;;;;;5056884;28;20158;-83
2022/11/19 10:21:56;;;;;;;14.75;11.13;;;4.70;99.90;;;;;;5056345;28;20231;-83
2022/11/19 10:25:01;;;;;;;15.77;12.00;;;4.70;99.90;;;;;;5056309;28;20485;-84
2022/11/19 10:27:35;;;;;;;15.77;11.70;;;4.60;99.90;;;;;;5038703;28;20504;-83
2022/11/19 10:30:05;;;;;;;15.30;11.57;;;4.60;99.90;;;;;;5056354;28;20601;-83
2022/11/19 10:32:45;;;;;;;14.52;11.75;;;4.60;99.90;;;;;;5037433;28;20259;-83
2022/11/19 10:35:18;;;;;;;15.82;11.45;;;4.60;99.90;;;;;;5056492;28;20182;-82
2022/11/19 10:37:55;;;;;;;16.52;12.00;;;4.70;99.90;;;;;;5056309;28;20165;-83
2022/11/19 10:40:24;;;;;;;16.90;11.50;;;4.80;99.90;;;;;;5055829;28;20261;-83
2022/11/19 10:42:54;;;;;;;13.88;10.95;;;4.80;99.90;;;;;;5056211;28;20560;-84
2022/11/19 10:45:26;;;;;;;16.38;12.57;;;4.80;99.90;;;;;;5055895;28;20205;-83
2022/11/19 10:48:05;;;;;;;13.68;10.70;;;4.80;99.90;;;;;;5038376;28;20181;-83
2022/11/19 10:50:31;;;;;;;13.43;10.35;;;4.70;99.90;;;;;;5057336;28;20225;-83
2022/11/19 10:53:07;;;;;;;17.07;10.27;;;4.80;99.90;;;;;;5055789;28;20205;-84
2022/11/19 10:55:43;;;;;;;11.48;9.50;;;4.80;99.90;;;;;;5055893;28;20175;-83
2022/11/19 10:58:33;;;;;;;12.93;10.48;;;4.80;99.90;;;;;;5056249;28;20187;-83
2022/11/19 11:01:01;;;;;;;13.85;10.75;;;4.70;99.90;;;;;;5055834;28;20312;-84
2022/11/19 11:03:49;;;;;;;14.88;10.88;;;4.70;99.90;;;;;;5037746;28;20195;-83
2022/11/19 11:06:14;;;;;;;14.90;10.82;;;4.70;99.90;;;;;;5055908;28;20170;-84
2022/11/19 11:08:52;;;;;;;16.80;9.60;;;4.80;99.90;;;;;;5055295;28;20179;-83
2022/11/19 11:14:50;;;;;;;14.35;10.80;;;4.80;99.90;;;;;;5056258;28;20166;-83
2022/11/19 11:16:54;;;;;;;13.75;10.27;;;4.80;99.90;;;;;;5055583;28;20238;-84
2022/11/19 11:19:21;;;;;;;14.17;11.20;;;4.80;99.90;;;;;;5004630;28;20178;-84
2022/11/19 11:21:52;;;;;;;10.90;9.20;;;4.80;99.90;;;;;;5055089;28;20189;-84
2022/11/19 11:24:18;;;;;;;14.77;10.75;;;4.80;99.90;;;;;;5053473;28;20338;-85
2022/11/19 11:26:44;;;;;;;11.27;9.02;;;4.80;99.90;;;;;;5014188;28;20185;-85
2022/11/19 11:29:13;;;;;;;14.43;10.87;;;4.90;99.90;;;;;;5016073;28;20558;-85
2022/11/19 11:31:46;;;;;;;13.80;10.15;;;4.90;99.90;;;;;;5034213;28;20977;-85
2022/11/19 11:34:35;;;;;;;12.60;10.18;;;5.00;99.90;;;;;;5037379;28;20200;-84
2022/11/19 11:37:04;;;;;;;11.95;10.45;;;5.10;99.90;;;;;;5055183;28;20197;-84
2022/11/19 11:39:37;;;;;;;11.82;9.30;;;5.00;99.90;;;;;;5054822;28;20527;-85
2022/11/19 11:42:04;;;;;;;11.30;9.25;;;4.90;99.90;;;;;;5037015;28;20272;-84
2022/11/19 11:44:35;;;;;;;13.45;9.55;;;4.90;99.90;;;;;;5037230;28;20180;-84
2022/11/19 11:47:09;;;;;;;12.88;9.48;;;4.90;99.90;;;;;;5055061;28;20181;-84
2022/11/19 11:49:44;;;;;;;12.05;9.52;;;5.00;99.90;;;;;;5036988;28;20201;-85
2022/11/19 11:52:15;;;;;;;12.55;8.80;;;5.00;99.90;;;;;;5053931;28;20233;-84
2022/11/19 11:54:58;;;;;;;12.50;9.63;;;5.00;99.90;;;;;;5054509;28;20188;-84
2022/11/19 11:57:26;;;;;;;12.57;9.65;;;5.00;99.90;;;;;;5054534;28;20173;-83
2022/11/19 11:59:52;;;;;;;14.18;9.95;;;5.00;99.90;;;;;;5054493;28;20235;-83
2022/11/19 12:02:21;;;;;;;11.90;8.93;;;5.00;99.90;;;;;;5036301;28;20183;-83
2022/11/19 12:04:48;;;;;;;11.68;9.55;;;5.00;99.90;;;;;;5036574;28;20176;-83
2022/11/19 12:07:35;;;;;;;12.57;9.25;;;5.10;99.90;;;;;;5036445;28;20533;-83
2022/11/19 12:10:26;;;;;;;12.73;9.73;;;5.20;99.90;;;;;;5036604;28;20523;-83
2022/11/19 12:13:14;;;;;;;11.15;8.90;;;5.20;99.90;;;;;;5054179;28;20194;-83
2022/11/19 12:15:43;;;;;;;14.50;9.80;;;5.30;99.90;;;;;;5023444;28;20189;-86
2022/11/19 12:18:24;;;;;;;12.07;9.70;;;5.30;99.90;;;;;;5037973;28;20181;-88
2022/11/19 12:21:02;;;;;;;11.55;9.15;;;5.20;99.90;;;;;;5054868;28;20277;-88
2022/11/19 12:23:34;;;;;;;13.50;10.05;;;5.20;99.90;;;;;;5056651;28;20233;-88
2022/11/19 12:26:11;;;;;;;11.32;9.30;;;5.20;99.90;;;;;;5037320;28;20204;-87
2022/11/19 12:29:01;;;;;;;11.80;8.65;;;5.30;99.90;;;;;;5054653;28;20161;-87
2022/11/19 12:31:38;;;;;;;12.32;8.45;;;5.30;99.90;;;;;;5065814;28;20173;-86
2022/11/19 12:34:24;;;;;;;13.70;9.15;;;5.30;99.90;;;;;;5045904;28;20203;-88
2022/11/19 12:37:31;;;;;;;14.30;10.65;;;5.30;99.90;;;;;;5054909;28;20207;-88
2022/11/19 12:40:23;;;;;;;14.38;11.00;;;5.30;99.90;;;;;;5036919;28;20175;-88
2022/11/19 12:43:17;;;;;;;13.60;10.18;;;5.20;99.90;;;;;;5054278;28;20567;-89
2022/11/19 12:45:56;;;;;;;14.55;10.45;;;5.20;99.90;;;;;;5054257;28;20613;-88
2022/11/19 12:48:50;;;;;;;16.55;11.90;;;5.10;99.90;;;;;;5054991;28;20170;-88
2022/11/19 12:51:21;;;;;;;12.48;9.40;;;5.00;99.90;;;;;;5054549;28;20174;-88
2022/11/19 12:54:27;;;;;;;11.55;9.20;;;5.00;99.90;;;;;;5036550;28;20224;-88
2022/11/19 12:57:14;;;;;;;13.88;10.88;;;5.00;99.90;;;;;;5054384;28;20166;-88
2022/11/19 12:59:53;;;;;;;12.52;8.80;;;5.00;99.90;;;;;;5036310;28;20235;-88
2022/11/19 13:02:47;;;;;;;12.60;9.73;;;5.00;99.90;;;;;;5036224;28;20272;-88
2022/11/19 13:05:41;;;;;;;11.65;9.05;;;5.10;99.90;;;;;;5032672;28;20273;-88
2022/11/19 13:08:12;;;;;;;14.73;9.65;;;5.10;99.90;;;;;;5020653;28;20217;-88
2022/11/19 13:10:41;;;;;;;10.73;8.20;;;5.00;99.90;;;;;;5058081;28;20179;-88
2022/11/19 13:13:10;;;;;;;13.18;9.75;;;5.10;99.90;;;;;;5040116;28;20205;-88
2022/11/19 13:15:41;;;;;;;15.30;10.68;;;5.10;99.90;;;;;;5057989;28;20208;-88
2022/11/19 13:18:14;;;;;;;13.10;8.70;;;5.10;99.90;;;;;;5040738;28;20188;-88
2022/11/19 13:20:45;;;;;;;15.88;11.50;;;5.10;99.90;;;;;;5058226;28;20264;-88
2022/11/19 13:23:31;;;;;;;11.98;8.90;;;5.20;99.90;;;;;;5040093;28;20184;-88
2022/11/19 13:26:09;;;;;;;10.63;8.45;;;5.20;99.90;;;;;;5040738;28;20178;-88
2022/11/19 13:28:39;;;;;;;11.57;8.55;;;5.20;99.90;;;;;;5040808;28;20225;-88